Terminal Aerodrome Forecast
Issued by NWS Sterling, VA

Current Version | Previous Version | Graphics & Text | Print | Product List | Glossary On
Versions: 1 2 3 4 5 6 7 8 9 10 11 12 13 14 15 16 17 18 19 20 21 22 23 24 25 26 27 28 29
000
FTUS41 KLWX 250334 AAA
TAFDCA
TAF AMD
KDCA 250334Z 2504/2524 18004KT P6SM BKN070
      TEMPO 2504/2505 VRB15KT 5SM -TSRA BKN070CB
     FM251500 23005KT P6SM SCT130
     FM251800 24007KT P6SM BKN060=

USA.gov is the U.S. government's official web portal to all federal, state and local government web resources and services.